createdAt,value
2019-06-26T00:00:05.171Z,3.33
2019-06-26T00:11:06.413Z,3.33
2019-06-26T00:22:06.391Z,3.33
2019-06-26T00:33:09.032Z,3.32
2019-06-26T00:44:08.885Z,3.32
2019-06-26T00:55:08.249Z,3.32
2019-06-26T01:06:01.538Z,3.32
2019-06-26T01:17:01.440Z,3.31
2019-06-26T01:28:02.602Z,3.31
2019-06-26T01:39:03.293Z,3.31
2019-06-26T01:50:04.027Z,3.31
2019-06-26T02:01:05.786Z,3.30
2019-06-26T02:12:06.187Z,3.30
2019-06-26T02:23:07.222Z,3.30
2019-06-26T02:34:09.124Z,3.30
2019-06-26T02:45:06.156Z,3.30
2019-06-26T02:56:06.100Z,3.30
2019-06-26T03:07:07.806Z,3.29
2019-06-26T03:18:08.307Z,3.29
2019-06-26T03:29:10.358Z,3.29
2019-06-26T03:40:12.376Z,3.29
2019-06-26T03:51:14.088Z,3.29
2019-06-26T04:02:17.868Z,3.29
2019-06-26T04:13:19.178Z,3.29
2019-06-26T04:24:09.582Z,3.29
2019-06-26T04:35:05.639Z,3.29
2019-06-26T04:45:58.086Z,3.29
2019-06-26T04:56:52.879Z,3.29
2019-06-26T05:07:49.173Z,3.29
2019-06-26T05:18:45.819Z,3.29
2019-06-26T05:29:42.060Z,3.30
2019-06-26T05:40:38.374Z,3.30
2019-06-26T05:51:35.659Z,3.31
2019-06-26T06:02:34.899Z,3.32
2019-06-26T06:13:29.704Z,3.32
2019-06-26T06:24:21.852Z,3.33
2019-06-26T06:35:08.009Z,3.34
2019-06-26T06:46:03.227Z,3.34
2019-06-26T06:57:01.587Z,3.34
2019-06-26T07:07:53.950Z,3.36
2019-06-26T07:18:35.041Z,3.36
2019-06-26T07:29:17.508Z,3.36
2019-06-26T07:40:01.468Z,3.37
2019-06-26T07:51:01.106Z,3.37
2019-06-26T08:01:58.291Z,3.38
2019-06-26T08:12:58.468Z,3.39
2019-06-26T08:23:59.483Z,3.39
2019-06-26T08:35:02.093Z,3.40
2019-06-26T08:46:02.674Z,3.41
2019-06-26T08:57:03.244Z,3.41
2019-06-26T09:08:03.412Z,3.42
2019-06-26T09:19:01.946Z,3.43
2019-06-26T09:30:03.375Z,3.44
2019-06-26T09:41:05.280Z,3.45
2019-06-26T09:52:05.635Z,3.46
2019-06-26T10:03:06.249Z,3.43
2019-06-26T10:14:06.677Z,3.42
2019-06-26T10:25:05.571Z,3.42
2019-06-26T10:36:09.321Z,3.41
2019-06-26T10:47:07.816Z,3.41
2019-06-26T10:58:10.534Z,3.40
2019-06-26T11:09:14.572Z,3.40
2019-06-26T11:20:14.793Z,3.40
2019-06-26T11:31:16.704Z,3.40
2019-06-26T11:42:17.349Z,3.40
2019-06-26T11:53:17.813Z,3.39
2019-06-26T12:04:19.290Z,3.44
2019-06-26T12:15:19.237Z,3.43
2019-06-26T12:26:20.108Z,3.42
2019-06-26T12:37:36.594Z,3.42
2019-06-26T12:48:27.702Z,3.42
2019-06-26T12:59:29.079Z,3.41
2019-06-26T13:10:29.804Z,3.41
2019-06-26T13:21:27.380Z,3.40
2019-06-26T13:32:21.938Z,3.40
2019-06-26T13:43:22.183Z,3.40
2019-06-26T13:54:17.943Z,3.40
2019-06-26T14:05:18.470Z,3.40
2019-06-26T14:16:15.325Z,3.40
2019-06-26T14:27:11.211Z,3.39
2019-06-26T14:38:10.645Z,3.39
2019-06-26T14:49:05.360Z,3.39
2019-06-26T15:00:07.214Z,3.39
2019-06-26T15:11:05.082Z,3.45
2019-06-26T15:22:01.953Z,3.45
2019-06-26T15:33:01.205Z,3.46
2019-06-26T15:44:01.689Z,3.46
2019-06-26T15:55:00.912Z,3.44
2019-06-26T16:06:02.069Z,3.43
2019-06-26T16:16:59.782Z,3.43
2019-06-26T16:28:05.772Z,3.42
2019-06-26T16:39:05.025Z,3.42
2019-06-26T16:50:03.538Z,3.42
2019-06-26T17:01:04.778Z,3.41
2019-06-26T17:11:59.569Z,3.41
2019-06-26T17:23:05.482Z,3.40
2019-06-26T17:34:00.902Z,3.40
2019-06-26T17:45:00.048Z,3.40
2019-06-26T17:56:00.311Z,3.40
2019-06-26T18:06:45.662Z,3.40
2019-06-26T18:17:43.010Z,3.40
2019-06-26T18:28:44.184Z,3.39
2019-06-26T18:39:46.343Z,3.39
2019-06-26T18:50:38.380Z,3.39
2019-06-26T19:01:36.031Z,3.39
2019-06-26T19:12:29.699Z,3.39
2019-06-26T19:23:27.684Z,3.38
2019-06-26T19:34:27.927Z,3.38
2019-06-26T19:45:26.546Z,3.37
2019-06-26T19:56:22.992Z,3.37
2019-06-26T20:07:19.508Z,3.37
2019-06-26T20:18:12.735Z,3.36
2019-06-26T20:29:11.401Z,3.36
2019-06-26T20:40:08.256Z,3.36
2019-06-26T20:51:04.934Z,3.36
2019-06-26T21:02:01.669Z,3.35
2019-06-26T21:12:54.398Z,3.34
2019-06-26T21:23:53.008Z,3.34
2019-06-26T21:34:50.899Z,3.34
2019-06-26T21:45:44.909Z,3.34
2019-06-26T21:56:43.502Z,3.34
2019-06-26T22:07:42.293Z,3.34
2019-06-26T22:18:39.026Z,3.34
2019-06-26T22:29:33.059Z,3.34
2019-06-26T22:40:34.116Z,3.33
2019-06-26T22:51:33.134Z,3.33
2019-06-26T23:02:28.397Z,3.33
2019-06-26T23:13:27.197Z,3.33
2019-06-26T23:24:23.962Z,3.33
2019-06-26T23:35:25.348Z,3.32
2019-06-26T23:46:24.268Z,3.32
2019-06-26T23:57:23.748Z,3.32
